Main page
METAR-TAF:

METAR-TAF

Airports :

Marrakesh Menara Airport

Marrakech, Morocco

latitude: 31-37N, longitude: 008-02W, elevation: 468 m

Current weather observation

The report was made 24 minutes ago, at 08:00 UTC
Wind 1 kt from variable directions
Temperature 7°C
Humidity 81%
Pressure 1020 hPa
Visibility 10 km or more
Few clouds at a height of 3000 ft

METAR: GMMX 080800Z VRB01KT 9999 FEW030 07/04 Q1020 NOSIG

Time: 09:24 (08:24 UTC)

Forecast

The report was made 3 hours and 24 minutes ago, at 05:00 UTC
Forecast valid from 08 at 06 UTC to 09 at 12 UTC
Wind 6 kt from the East/Southeast
Visibility: 8000 m
Scattered clouds at a height of 2600 ft
Scattered clouds at a height of 9000 ft

TAF: GMMX 080500Z 0806/0912 12006KT 8000 SCT026 SCT090

Weather observations and forecasts of more than 4000 airports (METAR and TAF reports).

The available stations are represented by yellow and red dots on the map.

Hover mouse over dot to see the name of the station.

Then click to see weather observations and forecasts.

To change the map : click on the green buttons with a black cross to zoom in, on the green button with a dash to zoom out, or on the green arrows for adjacent maps.


METAR-TAF: